Time;durP1;ratioP1;P1;durP2;ratioP2;P2;SDS_P1;SDS_P2;PMS_P1;PMS_P2;Temp;Humidity;BMP_temperature;BMP_pressure;BME280_temperature;BME280_humidity;BME280_pressure;Samples;Min_cycle;Max_cycle;Signal;HPM_P1;HPM_P2
2022/09/12 00:01:14;;;;;;;;;;;;;;;12.91;91.28;98188.00;1716710;82;20115;-69
2022/09/12 00:03:40;;;;;;;;;;;;;;;12.93;91.34;98189.97;1720650;82;21711;-68
2022/09/12 00:06:08;;;;;;;;;;;;;;;12.95;91.59;98190.05;1721123;82;20132;-68
2022/09/12 00:08:35;;;;;;;;;;;;;;;12.97;91.60;98188.48;1721252;82;20107;-68
2022/09/12 00:11:05;;;;;;;;;;;;;;;12.98;91.52;98184.25;1720283;82;20512;-68
2022/09/12 00:13:32;;;;;;;;;;;;;;;13.03;91.35;98186.80;1707913;82;20099;-68
2022/09/12 00:15:59;;;;;;;;;;;;;;;13.03;91.21;98180.13;1717259;82;20199;-68
2022/09/12 00:18:26;;;;;;;;;;;;;;;12.99;91.13;98179.73;1721463;82;20118;-68
2022/09/12 00:20:52;;;;;;;;;;;;;;;12.97;91.10;98179.96;1721416;82;20107;-68
2022/09/12 00:23:18;;;;;;;;;;;;;;;12.95;91.23;98174.03;1714544;82;20136;-69
2022/09/12 00:25:46;;;;;;;;;;;;;;;12.97;91.26;98167.13;1721462;82;20204;-68
2022/09/12 00:28:14;;;;;;;;;;;;;;;12.94;91.06;98159.55;1720862;82;21145;-68
2022/09/12 00:30:44;;;;;;;;;;;;;;;12.94;91.37;98154.20;1707981;82;20472;-69
2022/09/12 00:33:10;;;;;;;;;;;;;;;12.95;91.34;98158.02;1714780;82;20123;-68
2022/09/12 00:35:51;;;;;;;;;;;;;;;12.94;91.35;98158.21;1721281;82;20083;-68
2022/09/12 00:38:19;;;;;;;;;;;;;;;12.95;91.31;98154.52;1720011;82;20091;-68
2022/09/12 00:40:45;;;;;;;;;;;;;;;12.99;91.38;98153.04;1715979;82;21236;-68
2022/09/12 00:43:30;;;;;;;;;;;;;;;12.89;91.69;98147.38;1706508;82;20413;-68
2022/09/12 00:45:57;;;;;;;;;;;;;;;12.85;91.89;98146.98;1711353;82;20097;-68
2022/09/12 00:48:27;;;;;;;;;;;;;;;12.84;92.03;98148.03;1721321;82;20079;-68
2022/09/12 00:50:54;;;;;;;;;;;;;;;12.88;92.03;98144.39;1717815;83;20099;-68
2022/09/12 00:53:20;;;;;;;;;;;;;;;12.83;91.69;98140.22;1696223;82;21325;-68
2022/09/12 00:55:48;;;;;;;;;;;;;;;12.76;91.54;98143.47;1717305;82;20154;-68
2022/09/12 00:58:33;;;;;;;;;;;;;;;12.72;91.63;98143.06;1706837;82;20115;-68
2022/09/12 01:00:59;;;;;;;;;;;;;;;12.69;91.71;98140.03;1706089;82;20103;-67
2022/09/12 01:03:26;;;;;;;;;;;;;;;12.62;91.77;98137.39;1720824;82;20140;-68
2022/09/12 01:05:59;;;;;;;;;;;;;;;12.60;91.94;98142.13;1721872;82;21963;-68
2022/09/12 01:08:26;;;;;;;;;;;;;;;12.61;92.16;98138.95;1720990;82;20409;-68
2022/09/12 01:10:52;;;;;;;;;;;;;;;12.62;92.47;98133.94;1721818;82;20095;-68
2022/09/12 01:13:19;;;;;;;;;;;;;;;12.62;92.67;98134.72;1721770;82;20602;-68
2022/09/12 01:15:46;;;;;;;;;;;;;;;12.65;92.69;98140.14;1718776;82;20152;-68
2022/09/12 01:18:31;;;;;;;;;;;;;;;12.67;92.48;98134.10;1715073;82;21783;-68
2022/09/12 01:21:21;;;;;;;;;;;;;;;12.64;92.35;98136.69;1702200;82;20399;-67
2022/09/12 01:24:09;;;;;;;;;;;;;;;12.61;92.37;98136.28;1721910;82;20190;-67
2022/09/12 01:27:09;;;;;;;;;;;;;;;12.65;92.57;98132.14;1719028;82;20441;-68
2022/09/12 01:30:11;;;;;;;;;;;;;;;12.70;92.63;98126.97;1707015;82;20084;-68
2022/09/12 01:32:58;;;;;;;;;;;;;;;12.72;92.64;98130.27;1702730;82;21087;-68
2022/09/12 01:35:49;;;;;;;;;;;;;;;12.77;92.79;98127.25;1704566;82;20111;-68
2022/09/12 01:38:31;;;;;;;;;;;;;;;12.79;92.75;98125.69;1719392;82;20095;-68
2022/09/12 01:41:19;;;;;;;;;;;;;;;12.78;92.75;98122.70;1721820;82;20094;-68
2022/09/12 01:43:58;;;;;;;;;;;;;;;12.78;92.78;98123.53;1709204;82;20087;-68
2022/09/12 01:46:47;;;;;;;;;;;;;;;12.78;92.80;98120.04;1713430;82;22093;-67
2022/09/12 01:49:20;;;;;;;;;;;;;;;12.72;92.80;98127.05;1691916;83;20127;-67
2022/09/12 01:51:59;;;;;;;;;;;;;;;12.69;92.86;98113.35;1698834;83;20479;-68
2022/09/12 01:54:44;;;;;;;;;;;;;;;12.72;92.85;98119.59;1689968;83;20083;-68
2022/09/12 01:57:18;;;;;;;;;;;;;;;12.71;92.80;98115.28;1699119;83;20087;-68
2022/09/12 01:59:47;;;;;;;;;;;;;;;12.69;92.87;98114.17;1681422;84;21144;-69
2022/09/12 02:02:16;;;;;;;;;;;;;;;12.68;92.79;98106.37;1670542;84;20106;-68
2022/09/12 02:04:52;;;;;;;;;;;;;;;12.70;92.92;98108.30;1668211;84;20146;-69
2022/09/12 02:07:53;;;;;;;;;;;;;;;12.72;92.98;98111.59;1693068;83;20130;-68
2022/09/12 02:10:24;;;;;;;;;;;;;;;12.70;92.90;98109.12;1669900;84;20143;-69
2022/09/12 02:12:56;;;;;;;;;;;;;;;12.73;93.12;98108.69;1666729;84;21920;-68
2022/09/12 02:15:29;;;;;;;;;;;;;;;12.75;93.08;98107.12;1668871;84;20460;-69
2022/09/12 02:17:56;;;;;;;;;;;;;;;12.73;92.99;98106.53;1678401;84;20102;-69
2022/09/12 02:20:30;;;;;;;;;;;;;;;12.72;93.08;98109.71;1680048;84;20126;-68
2022/09/12 02:22:56;;;;;;;;;;;;;;;12.76;93.00;98112.77;1677993;84;20074;-69
2022/09/12 02:25:23;;;;;;;;;;;;;;;12.74;93.03;98109.00;1664274;84;21066;-68
2022/09/12 02:27:55;;;;;;;;;;;;;;;12.76;93.73;98102.10;1645115;84;20495;-68
2022/09/12 02:30:21;;;;;;;;;;;;;;;12.80;93.28;98104.66;1668172;85;20190;-69
2022/09/12 02:33:02;;;;;;;;;;;;;;;12.82;93.19;98108.73;1672811;84;20091;-68
2022/09/12 02:35:45;;;;;;;;;;;;;;;12.85;93.22;98103.48;1670089;84;20115;-68
2022/09/12 02:38:18;;;;;;;;;;;;;;;12.89;93.15;98106.00;1670015;84;21701;-67
2022/09/12 02:40:44;;;;;;;;;;;;;;;12.90;93.11;98111.65;1680139;84;20159;-67
2022/09/12 02:43:10;;;;;;;;;;;;;;;12.90;93.03;98111.65;1679396;84;20543;-68
2022/09/12 02:45:36;;;;;;;;;;;;;;;12.87;92.98;98110.23;1679822;84;20453;-68
2022/09/12 02:48:09;;;;;;;;;;;;;;;12.89;92.98;98106.00;1674301;84;20154;-68
2022/09/12 02:50:36;;;;;;;;;;;;;;;12.91;93.12;98099.92;1660996;85;21249;-68
2022/09/12 02:53:04;;;;;;;;;;;;;;;12.93;93.09;98102.67;1668129;84;20117;-68
2022/09/12 02:55:32;;;;;;;;;;;;;;;12.98;92.97;98104.70;1674618;84;20418;-68
2022/09/12 02:58:03;;;;;;;;;;;;;;;12.96;92.88;98095.56;1679646;84;20167;-68
2022/09/12 03:00:31;;;;;;;;;;;;;;;12.94;92.75;98106.16;1682732;83;20103;-68
2022/09/12 03:03:18;;;;;;;;;;;;;;;12.91;92.76;98095.92;1707274;82;21682;-68
2022/09/12 03:05:48;;;;;;;;;;;;;;;12.89;92.76;98100.16;1715913;82;20095;-68
2022/09/12 03:08:47;;;;;;;;;;;;;;;12.85;93.04;98097.60;1695401;83;20115;-68
2022/09/12 03:11:18;;;;;;;;;;;;;;;12.87;92.96;98096.89;1695942;83;20091;-68
2022/09/12 03:13:54;;;;;;;;;;;;;;;12.85;93.07;98099.48;1683926;83;20085;-68
2022/09/12 03:16:30;;;;;;;;;;;;;;;12.83;93.04;98095.67;1711978;82;21157;-68
2022/09/12 03:19:09;;;;;;;;;;;;;;;12.80;93.03;98097.98;1706697;82;20175;-68
2022/09/12 03:21:52;;;;;;;;;;;;;;;12.83;93.18;98095.67;1678325;83;20076;-68
2022/09/12 03:24:31;;;;;;;;;;;;;;;12.83;93.21;98094.85;1678852;83;20125;-68
2022/09/12 03:27:16;;;;;;;;;;;;;;;12.81;93.26;98091.08;1687706;83;20151;-67
2022/09/12 03:29:42;;;;;;;;;;;;;;;12.81;93.33;98093.75;1685881;83;21168;-67
2022/09/12 03:32:09;;;;;;;;;;;;;;;12.77;93.31;98094.41;1715084;82;20461;-68
2022/09/12 03:34:35;;;;;;;;;;;;;;;12.75;93.38;98095.94;1715148;82;20453;-67
2022/09/12 03:37:02;;;;;;;;;;;;;;;12.79;93.27;98097.67;1691193;83;20180;-68
2022/09/12 03:39:28;;;;;;;;;;;;;;;12.79;93.35;98099.00;1674237;83;20236;-68
2022/09/12 03:41:55;;;;;;;;;;;;;;;12.82;93.45;98093.23;1716539;82;21911;-68
2022/09/12 03:44:21;;;;;;;;;;;;;;;12.84;93.49;98099.17;1715588;82;20111;-68
2022/09/12 03:46:47;;;;;;;;;;;;;;;12.87;93.55;98096.06;1689513;83;20099;-67
2022/09/12 03:49:14;;;;;;;;;;;;;;;12.93;93.62;98101.88;1704457;82;20461;-68
2022/09/12 03:51:41;;;;;;;;;;;;;;;12.96;93.49;98096.91;1702936;82;20093;-68
2022/09/12 03:54:08;;;;;;;;;;;;;;;12.93;93.27;98102.67;1679580;83;21256;-68
2022/09/12 03:56:35;;;;;;;;;;;;;;;12.91;93.29;98104.75;1716430;82;20424;-68
2022/09/12 03:59:05;;;;;;;;;;;;;;;12.94;93.44;98102.98;1709116;82;20122;-68
2022/09/12 04:01:31;;;;;;;;;;;;;;;12.95;93.42;98109.97;1715149;82;20115;-69
2022/09/12 04:03:58;;;;;;;;;;;;;;;12.95;93.30;98107.81;1706593;82;20086;-69
2022/09/12 04:06:24;;;;;;;;;;;;;;;12.95;93.36;98108.63;1704405;82;21160;-69
2022/09/12 04:08:52;;;;;;;;;;;;;;;13.00;93.47;98106.63;1707913;82;20134;-69
2022/09/12 04:11:19;;;;;;;;;;;;;;;13.06;93.45;98107.62;1697460;82;20463;-69
2022/09/12 04:13:46;;;;;;;;;;;;;;;13.11;93.36;98117.98;1711265;82;20076;-68
2022/09/12 04:16:12;;;;;;;;;;;;;;;13.12;93.32;98111.58;1709972;82;20142;-68
2022/09/12 04:18:39;;;;;;;;;;;;;;;13.16;93.32;98117.31;1690731;83;22172;-68
2022/09/12 04:21:06;;;;;;;;;;;;;;;13.22;93.31;98114.56;1716089;82;20119;-69
2022/09/12 04:23:33;;;;;;;;;;;;;;;13.28;93.30;98116.88;1689233;83;20135;-68
2022/09/12 04:26:01;;;;;;;;;;;;;;;13.32;93.21;98119.42;1699248;82;20125;-69
2022/09/12 04:28:31;;;;;;;;;;;;;;;13.38;93.12;98118.01;1676272;83;20091;-69
2022/09/12 04:31:06;;;;;;;;;;;;;;;13.40;93.05;98117.80;1689804;82;21162;-69
2022/09/12 04:33:34;;;;;;;;;;;;;;;13.44;92.94;98115.80;1674127;83;20123;-69
2022/09/12 04:36:07;;;;;;;;;;;;;;;13.46;92.98;98127.59;1707453;82;20099;-68
2022/09/12 04:38:34;;;;;;;;;;;;;;;13.48;93.05;98126.33;1675669;83;20135;-68
2022/09/12 04:41:01;;;;;;;;;;;;;;;13.49;92.98;98129.31;1716194;82;20123;-68
2022/09/12 04:43:27;;;;;;;;;;;;;;;13.48;92.99;98127.66;1662642;85;21251;-68
2022/09/12 04:45:54;;;;;;;;;;;;;;;13.53;92.84;98132.37;1700838;82;20461;-68
2022/09/12 04:48:20;;;;;;;;;;;;;;;13.54;92.83;98134.80;1705972;82;20165;-68
2022/09/12 04:50:46;;;;;;;;;;;;;;;13.56;92.70;98135.39;1710348;82;20153;-69
2022/09/12 04:53:12;;;;;;;;;;;;;;;13.56;92.81;98136.73;1711594;82;20114;-69
2022/09/12 04:55:39;;;;;;;;;;;;;;;13.56;92.75;98139.91;1717392;82;21316;-69
2022/09/12 04:58:05;;;;;;;;;;;;;;;13.56;92.62;98142.59;1721241;82;20162;-69
2022/09/12 05:00:32;;;;;;;;;;;;;;;13.56;92.56;98139.41;1706853;82;20099;-68
2022/09/12 05:02:59;;;;;;;;;;;;;;;13.57;92.59;98153.07;1720465;82;20087;-69
2022/09/12 05:05:25;;;;;;;;;;;;;;;13.60;92.65;98149.96;1715223;82;20099;-68
2022/09/12 05:07:53;;;;;;;;;;;;;;;13.63;92.71;98150.55;1700323;82;20142;-68
2022/09/12 05:10:19;;;;;;;;;;;;;;;13.62;92.71;98147.05;1717662;82;20107;-68
2022/09/12 05:12:47;;;;;;;;;;;;;;;13.68;92.65;98152.04;1720704;82;20095;-68
2022/09/12 05:15:13;;;;;;;;;;;;;;;13.72;92.51;98154.04;1712148;82;20157;-68
2022/09/12 05:17:40;;;;;;;;;;;;;;;13.74;92.33;98157.30;1716642;82;20102;-69
2022/09/12 05:20:08;;;;;;;;;;;;;;;13.74;92.35;98155.96;1707382;82;21974;-69
2022/09/12 05:22:34;;;;;;;;;;;;;;;13.78;92.29;98159.02;1720313;82;20123;-69
2022/09/12 05:25:01;;;;;;;;;;;;;;;13.80;92.20;98158.27;1719135;82;20158;-68
2022/09/12 05:27:27;;;;;;;;;;;;;;;13.81;92.26;98159.92;1721476;82;20564;-68
2022/09/12 05:29:54;;;;;;;;;;;;;;;13.83;92.26;98161.33;1714590;82;20437;-68
2022/09/12 05:32:20;;;;;;;;;;;;;;;13.86;92.19;98164.08;1703728;82;20522;-68
2022/09/12 05:34:46;;;;;;;;;;;;;;;13.90;92.17;98165.25;1720040;82;20095;-68
2022/09/12 05:37:12;;;;;;;;;;;;;;;13.93;91.98;98158.13;1717355;82;20111;-69
2022/09/12 05:39:39;;;;;;;;;;;;;;;13.93;91.85;98160.80;1715701;82;20172;-69
2022/09/12 05:42:05;;;;;;;;;;;;;;;13.94;91.89;98163.27;1721421;82;20099;-69
2022/09/12 05:44:32;;;;;;;;;;;;;;;13.96;91.84;98165.19;1720624;82;21263;-69
2022/09/12 05:46:59;;;;;;;;;;;;;;;14.00;91.78;98165.57;1711695;82;20083;-69
2022/09/12 05:49:25;;;;;;;;;;;;;;;13.99;91.84;98162.59;1712663;82;20095;-69
2022/09/12 05:51:52;;;;;;;;;;;;;;;14.00;92.00;98162.89;1714714;82;20168;-69
2022/09/12 05:54:19;;;;;;;;;;;;;;;14.04;91.72;98166.74;1708549;82;20099;-69
2022/09/12 05:56:47;;;;;;;;;;;;;;;14.04;91.67;98168.08;1721344;82;21262;-70
2022/09/12 05:59:18;;;;;;;;;;;;;;;14.10;91.62;98167.20;1716473;82;20568;-68
2022/09/12 06:01:45;;;;;;;;;;;;;;;14.18;91.49;98172.24;1704438;82;20129;-69
2022/09/12 06:04:11;;;;;;;;;;;;;;;14.09;92.15;98170.38;1713280;82;20083;-69
2022/09/12 06:06:40;;;;;;;;;;;;;;;14.08;92.52;98165.24;1705272;82;20101;-67
2022/09/12 06:09:06;;;;;;;;;;;;;;;14.07;92.25;98171.65;1707546;82;21840;-67
2022/09/12 06:11:34;;;;;;;;;;;;;;;14.07;92.20;98168.98;1708346;83;20101;-67
2022/09/12 06:14:01;;;;;;;;;;;;;;;14.06;92.06;98175.34;1711754;83;20109;-68
2022/09/12 06:16:29;;;;;;;;;;;;;;;14.06;92.04;98171.34;1715847;82;20765;-68
2022/09/12 06:18:57;;;;;;;;;;;;;;;14.07;91.97;98168.98;1717138;83;20164;-68
2022/09/12 06:21:25;;;;;;;;;;;;;;;14.05;91.90;98170.52;1723615;82;21153;-69
2022/09/12 06:23:54;;;;;;;;;;;;;;;14.08;92.01;98171.41;1713555;83;20191;-71
2022/09/12 06:26:22;;;;;;;;;;;;;;;14.15;92.00;98174.02;1704939;83;20181;-68
2022/09/12 06:28:48;;;;;;;;;;;;;;;14.21;91.98;98177.12;1719549;82;20202;-68
2022/09/12 06:31:17;;;;;;;;;;;;;;;14.28;92.02;98172.52;1713942;83;20181;-71
2022/09/12 06:33:47;;;;;;;;;;;;;;;14.36;92.05;98174.92;1713992;83;20103;-69
2022/09/12 06:36:15;;;;;;;;;;;;;;;14.44;92.02;98170.61;1713110;83;20186;-70
2022/09/12 06:38:41;;;;;;;;;;;;;;;14.52;91.81;98173.48;1710452;83;20098;-69
2022/09/12 06:41:10;;;;;;;;;;;;;;;14.59;91.47;98173.69;1701815;83;20240;-69
2022/09/12 06:43:36;;;;;;;;;;;;;;;14.60;91.16;98175.84;1715834;83;20087;-70
2022/09/12 06:46:02;;;;;;;;;;;;;;;14.60;90.90;98179.31;1702660;83;21124;-69
2022/09/12 06:48:29;;;;;;;;;;;;;;;14.59;90.80;98175.54;1696690;83;20437;-70
2022/09/12 06:50:59;;;;;;;;;;;;;;;14.63;90.75;98182.88;1707108;83;20099;-70
2022/09/12 06:53:26;;;;;;;;;;;;;;;14.65;90.63;98181.33;1701534;83;20282;-69
2022/09/12 06:56:03;;;;;;;;;;;;;;;14.67;90.46;98180.58;1704082;82;20521;-69
2022/09/12 06:58:30;;;;;;;;;;;;;;;14.69;90.51;98175.29;1700149;83;21116;-70
2022/09/12 07:01:04;;;;;;;;;;;;;;;14.76;90.39;98180.02;1710607;83;20167;-68
2022/09/12 07:03:31;;;;;;;;;;;;;;;14.78;90.25;98177.92;1705826;83;20105;-67
2022/09/12 07:06:09;;;;;;;;;;;;;;;14.81;90.37;98185.50;1739493;82;20151;-68
2022/09/12 07:08:38;;;;;;;;;;;;;;;14.86;90.59;98190.16;1711539;83;20500;-68
2022/09/12 07:11:16;;;;;;;;;;;;;;;14.92;90.56;98195.13;1719282;83;21763;-68
2022/09/12 07:13:44;;;;;;;;;;;;;;;15.01;90.57;98189.75;1714922;83;20099;-68
2022/09/12 07:16:11;;;;;;;;;;;;;;;15.13;90.41;98196.77;1711560;82;20096;-68
2022/09/12 07:18:38;;;;;;;;;;;;;;;15.24;90.17;98196.50;1709705;83;20111;-68
2022/09/12 07:21:06;;;;;;;;;;;;;;;15.36;89.93;98194.13;1713180;82;20311;-68
2022/09/12 07:23:33;;;;;;;;;;;;;;;15.46;89.85;98198.92;1707671;83;21784;-68
2022/09/12 07:25:59;;;;;;;;;;;;;;;15.56;89.84;98196.52;1721187;83;20414;-68
2022/09/12 07:28:26;;;;;;;;;;;;;;;15.67;89.47;98198.91;1714353;82;20443;-69
2022/09/12 07:30:53;;;;;;;;;;;;;;;15.71;89.00;98199.54;1722473;82;20096;-67
2022/09/12 07:33:20;;;;;;;;;;;;;;;15.75;89.10;98202.03;1707646;82;20083;-69
2022/09/12 07:35:46;;;;;;;;;;;;;;;15.83;89.41;98205.70;1711454;83;21208;-69
2022/09/12 07:38:12;;;;;;;;;;;;;;;15.95;89.53;98201.68;1721226;83;20119;-69
2022/09/12 07:40:40;;;;;;;;;;;;;;;16.08;89.24;98201.43;1721226;83;20114;-69
2022/09/12 07:43:06;;;;;;;;;;;;;;;16.19;88.84;98203.80;1721076;83;20131;-69
2022/09/12 07:45:32;;;;;;;;;;;;;;;16.30;88.57;98205.10;1721211;83;20296;-69
2022/09/12 07:47:59;;;;;;;;;;;;;;;16.32;88.52;98211.05;1714846;83;21270;-69
2022/09/12 07:50:25;;;;;;;;;;;;;;;16.40;88.65;98208.55;1721528;83;20115;-68
2022/09/12 07:52:54;;;;;;;;;;;;;;;16.45;88.54;98207.30;1709779;83;20156;-69
2022/09/12 07:55:21;;;;;;;;;;;;;;;16.46;88.22;98211.59;1721320;82;20107;-69
2022/09/12 07:57:51;;;;;;;;;;;;;;;16.49;87.89;98205.75;1721615;82;20175;-68
2022/09/12 08:00:17;;;;;;;;;;;;;;;16.50;87.57;98205.50;1718014;82;21168;-68
2022/09/12 08:02:44;;;;;;;;;;;;;;;16.54;87.66;98214.76;1721478;82;20511;-69
2022/09/12 08:05:10;;;;;;;;;;;;;;;16.65;87.93;98216.59;1721371;82;20083;-69
2022/09/12 08:07:37;;;;;;;;;;;;;;;16.80;88.17;98216.05;1721273;82;20115;-68
2022/09/12 08:10:05;;;;;;;;;;;;;;;16.91;87.90;98216.54;1721267;82;20210;-68
2022/09/12 08:12:33;;;;;;;;;;;;;;;16.98;87.44;98215.03;1721397;82;21109;-69
2022/09/12 08:14:59;;;;;;;;;;;;;;;17.05;86.67;98213.83;1721273;82;20110;-68
2022/09/12 08:17:26;;;;;;;;;;;;;;;17.03;86.63;98215.95;1714468;82;20111;-69
2022/09/12 08:19:52;;;;;;;;;;;;;;;17.11;86.82;98214.21;1692519;83;20184;-69
2022/09/12 08:22:20;;;;;;;;;;;;;;;17.19;86.51;98213.81;1693552;82;20089;-69
2022/09/12 08:24:47;;;;;;;;;;;;;;;17.21;86.04;98214.38;1719974;82;21204;-68
2022/09/12 08:27:14;;;;;;;;;;;;;;;17.22;85.73;98220.58;1721179;82;20114;-69
2022/09/12 08:29:40;;;;;;;;;;;;;;;17.22;85.67;98218.71;1708894;82;20104;-69
2022/09/12 08:32:06;;;;;;;;;;;;;;;17.22;85.69;98215.20;1718085;82;20115;-69
2022/09/12 08:34:33;;;;;;;;;;;;;;;17.14;85.66;98220.45;1721374;82;20090;-70
2022/09/12 08:37:00;;;;;;;;;;;;;;;17.11;85.47;98223.61;1721491;82;21224;-69
2022/09/12 08:39:26;;;;;;;;;;;;;;;16.99;85.54;98227.42;1721285;82;20099;-68
2022/09/12 08:42:01;;;;;;;;;;;;;;;16.87;85.49;98229.36;1721344;82;20461;-69
2022/09/12 08:44:50;;;;;;;;;;;;;;;16.72;85.22;98228.52;1721416;82;20461;-69
2022/09/12 08:47:23;;;;;;;;;;;;;;;16.56;85.12;98233.30;1711016;82;20091;-68
2022/09/12 08:50:11;;;;;;;;;;;;;;;16.48;85.06;98237.66;1721525;82;21158;-68
2022/09/12 08:53:02;;;;;;;;;;;;;;;16.56;85.56;98235.47;1712499;82;20155;-68
2022/09/12 08:55:50;;;;;;;;;;;;;;;16.77;85.52;98231.30;1715575;82;20083;-67
2022/09/12 08:58:19;;;;;;;;;;;;;;;16.98;85.46;98232.49;1720523;82;20098;-69
2022/09/12 09:01:11;;;;;;;;;;;;;;;17.16;85.19;98234.45;1704019;82;20117;-69
2022/09/12 09:03:57;;;;;;;;;;;;;;;17.36;84.87;98227.80;1721507;82;21212;-68
2022/09/12 09:06:51;;;;;;;;;;;;;;;17.59;84.19;98231.70;1696698;82;20106;-69
2022/09/12 09:09:26;;;;;;;;;;;;;;;17.74;83.39;98231.41;1692957;83;20453;-68
2022/09/12 09:12:27;;;;;;;;;;;;;;;17.92;83.57;98231.67;1696024;83;20115;-69
2022/09/12 09:15:20;;;;;;;;;;;;;;;18.08;83.14;98227.31;1679498;83;20092;-69
2022/09/12 09:17:45;;;;;;;;;;;;;;;18.21;82.38;98230.47;1691484;83;21123;-68
2022/09/12 09:20:37;;;;;;;;;;;;;;;18.39;82.25;98226.66;1716512;82;20120;-68
2022/09/12 09:23:14;;;;;;;;;;;;;;;18.41;81.83;98230.73;1691083;83;20127;-68
2022/09/12 09:26:03;;;;;;;;;;;;;;;18.25;81.43;98238.88;1706328;82;20119;-68
2022/09/12 09:28:38;;;;;;;;;;;;;;;18.00;81.40;98237.16;1692857;82;35890;-68
2022/09/12 09:31:06;;;;;;;;;;;;;;;17.71;81.81;98249.38;1710908;82;21218;-68
2022/09/12 09:33:33;;;;;;;;;;;;;;;17.43;81.78;98249.43;1711045;82;20087;-67
2022/09/12 09:36:35;;;;;;;;;;;;;;;17.09;81.91;98248.57;1712309;82;20082;-68
2022/09/12 09:39:08;;;;;;;;;;;;;;;16.86;82.95;98256.73;1708060;82;20119;-69
2022/09/12 09:42:10;;;;;;;;;;;;;;;16.67;83.35;98261.98;1721094;82;20189;-68
2022/09/12 09:44:36;;;;;;;;;;;;;;;16.65;83.96;98263.59;1721451;82;21263;-69
2022/09/12 09:47:04;;;;;;;;;;;;;;;16.81;84.18;98259.33;1702855;82;20093;-67
2022/09/12 09:49:32;;;;;;;;;;;;;;;17.12;84.20;98261.53;1711726;82;20115;-68
2022/09/12 09:52:01;;;;;;;;;;;;;;;17.61;83.49;98259.16;1719984;82;20469;-69
2022/09/12 09:54:48;;;;;;;;;;;;;;;18.36;82.27;98260.28;1712310;82;20157;-69
2022/09/12 09:57:35;;;;;;;;;;;;;;;19.24;80.43;98258.38;1716011;82;21751;-68
2022/09/12 10:00:25;;;;;;;;;;;;;;;20.18;77.96;98260.74;1718800;82;20806;-68
2022/09/12 10:03:20;;;;;;;;;;;;;;;20.92;75.53;98258.16;1710872;82;20115;-68
2022/09/12 10:05:49;;;;;;;;;;;;;;;21.07;75.16;98260.11;1704135;82;20081;-68
2022/09/12 10:08:20;;;;;;;;;;;;;;;20.77;75.84;98270.28;1706624;82;20116;-69
2022/09/12 10:10:53;;;;;;;;;;;;;;;20.42;76.67;98278.73;1711446;82;21203;-68
2022/09/12 10:13:26;;;;;;;;;;;;;;;20.02;77.19;98286.04;1717372;82;20441;-69
2022/09/12 10:15:59;;;;;;;;;;;;;;;19.62;77.29;98286.52;1718689;82;20189;-69
2022/09/12 10:18:34;;;;;;;;;;;;;;;19.30;77.88;98291.85;1698873;83;20150;-69
2022/09/12 10:21:00;;;;;;;;;;;;;;;19.03;78.07;98297.22;1695556;83;20452;-69
2022/09/12 10:23:34;;;;;;;;;;;;;;;18.82;78.80;98294.01;1682911;83;21917;-69
2022/09/12 10:26:03;;;;;;;;;;;;;;;18.74;78.79;98293.13;1698882;83;20501;-68
2022/09/12 10:28:34;;;;;;;;;;;;;;;18.66;78.89;98299.48;1714758;82;20138;-67
2022/09/12 10:31:01;;;;;;;;;;;;;;;18.54;78.73;98306.88;1707039;82;20467;-69
2022/09/12 10:33:28;;;;;;;;;;;;;;;18.30;78.53;98312.41;1699054;83;20103;-69
2022/09/12 10:35:54;;;;;;;;;;;;;;;18.01;79.14;98312.27;1719164;82;21168;-69
2022/09/12 10:38:23;;;;;;;;;;;;;;;17.75;79.94;98319.09;1719120;82;20148;-69
2022/09/12 10:41:05;;;;;;;;;;;;;;;17.52;80.83;98318.41;1698954;83;20087;-69
2022/09/12 10:43:36;;;;;;;;;;;;;;;17.33;81.50;98330.42;1719307;82;20098;-68
2022/09/12 10:46:18;;;;;;;;;;;;;;;17.17;81.98;98327.98;1711753;82;20423;-69
2022/09/12 10:48:47;;;;;;;;;;;;;;;17.09;82.13;98334.55;1690818;83;21174;-69
2022/09/12 10:51:28;;;;;;;;;;;;;;;17.05;82.32;98336.07;1698844;83;20413;-69
2022/09/12 10:53:59;;;;;;;;;;;;;;;17.00;82.77;98331.94;1695445;82;20146;-69
2022/09/12 10:56:29;;;;;;;;;;;;;;;17.04;83.35;98338.48;1709685;83;20150;-69
2022/09/12 10:59:02;;;;;;;;;;;;;;;17.06;83.57;98336.38;1696259;83;20137;-69
2022/09/12 11:01:47;;;;;;;;;;;;;;;17.07;83.58;98346.08;1717057;82;21213;-70
2022/09/12 11:04:34;;;;;;;;;;;;;;;17.05;83.54;98349.50;1637744;86;20132;-68
2022/09/12 11:07:17;;;;;;;;;;;;;;;16.96;83.49;98355.50;1687170;83;20440;-68
2022/09/12 11:10:10;;;;;;;;;;;;;;;16.76;83.49;98355.09;1681554;83;20075;-69
2022/09/12 11:13:02;;;;;;;;;;;;;;;16.31;84.45;98359.71;1695332;83;20517;-69
2022/09/12 11:15:55;;;;;;;;;;;;;;;16.14;84.28;98362.78;1677526;84;21830;-68
2022/09/12 11:18:38;;;;;;;;;;;;;;;16.03;84.50;98367.09;1672031;84;20121;-68
2022/09/12 11:21:08;;;;;;;;;;;;;;;15.96;84.49;98370.92;1699913;83;20444;-68
2022/09/12 11:23:58;;;;;;;;;;;;;;;15.97;84.73;98372.05;1719186;83;20099;-69
2022/09/12 11:26:44;;;;;;;;;;;;;;;15.78;85.76;98370.49;1698694;84;20135;-69
2022/09/12 11:29:42;;;;;;;;;;;;;;;15.94;86.00;98370.34;1707852;83;20628;-69
2022/09/12 11:32:24;;;;;;;;;;;;;;;16.15;85.73;98372.48;1716095;83;20095;-68
2022/09/12 11:35:03;;;;;;;;;;;;;;;16.32;85.15;98377.98;1702092;83;20103;-68
2022/09/12 11:37:39;;;;;;;;;;;;;;;16.44;84.13;98378.78;1719239;83;20157;-68
2022/09/12 11:40:26;;;;;;;;;;;;;;;16.55;83.25;98382.84;1699057;84;20128;-68
2022/09/12 11:43:04;;;;;;;;;;;;;;;16.56;82.17;98393.03;1681230;84;20588;-69
2022/09/12 11:45:37;;;;;;;;;;;;;;;16.36;81.80;98393.37;1711821;83;20450;-69
2022/09/12 11:48:06;;;;;;;;;;;;;;;16.18;80.95;98399.37;1716370;83;20123;-69
2022/09/12 11:50:32;;;;;;;;;;;;;;;16.04;80.13;98397.41;1695946;84;20122;-69
2022/09/12 11:53:17;;;;;;;;;;;;;;;15.94;79.12;98396.65;1702218;83;20132;-68
2022/09/12 11:55:53;;;;;;;;;;;;;;;16.03;77.44;98391.23;1716292;82;21161;-69
2022/09/12 11:58:21;;;;;;;;;;;;;;;15.77;76.94;98399.68;1718053;82;20191;-68
2022/09/12 12:00:50;;;;;;;;;;;;;;;15.72;76.47;98396.88;1714587;82;20163;-68
2022/09/12 12:03:26;;;;;;;;;;;;;;;15.72;75.90;98402.23;1719107;81;20163;-69
2022/09/12 12:05:59;;;;;;;;;;;;;;;15.75;75.09;98402.30;1714974;82;20099;-69
2022/09/12 12:08:26;;;;;;;;;;;;;;;15.80;74.48;98406.48;1682321;84;21797;-69
2022/09/12 12:10:58;;;;;;;;;;;;;;;15.83;74.65;98405.48;1714548;82;20083;-68
2022/09/12 12:13:42;;;;;;;;;;;;;;;15.89;74.84;98411.27;1699015;83;20127;-69
2022/09/12 12:16:26;;;;;;;;;;;;;;;15.95;75.05;98409.55;1698921;83;20433;-69
2022/09/12 12:18:58;;;;;;;;;;;;;;;15.98;74.24;98417.14;1682603;83;20106;-69
2022/09/12 12:21:41;;;;;;;;;;;;;;;15.90;73.89;98414.23;1697473;83;21170;-69
2022/09/12 12:24:14;;;;;;;;;;;;;;;15.90;73.54;98421.48;1699095;83;20103;-68
2022/09/12 12:26:58;;;;;;;;;;;;;;;15.87;73.30;98421.94;1681143;83;20123;-69
2022/09/12 12:29:45;;;;;;;;;;;;;;;15.81;73.29;98425.53;1686576;83;20213;-68
2022/09/12 12:32:15;;;;;;;;;;;;;;;15.76;72.95;98421.38;1694052;83;20087;-68
2022/09/12 12:34:42;;;;;;;;;;;;;;;15.73;72.79;98423.99;1695012;83;21176;-68
2022/09/12 12:37:22;;;;;;;;;;;;;;;15.69;72.87;98424.17;1709537;83;20358;-68
2022/09/12 12:39:52;;;;;;;;;;;;;;;15.70;73.39;98431.14;1714628;82;20071;-69
2022/09/12 12:42:38;;;;;;;;;;;;;;;15.75;73.69;98425.91;1698924;83;20648;-69
2022/09/12 12:45:26;;;;;;;;;;;;;;;15.76;73.66;98431.58;1699086;83;20157;-69
2022/09/12 12:47:54;;;;;;;;;;;;;;;15.80;73.59;98434.64;1697505;83;22091;-68
2022/09/12 12:50:26;;;;;;;;;;;;;;;15.84;73.61;98438.48;1719212;82;20103;-69
2022/09/12 12:52:54;;;;;;;;;;;;;;;15.86;73.76;98437.20;1707870;82;20101;-69
2022/09/12 12:55:37;;;;;;;;;;;;;;;15.90;73.80;98441.05;1686031;83;20445;-68
2022/09/12 12:58:21;;;;;;;;;;;;;;;15.93;73.49;98445.14;1693058;83;20114;-68
2022/09/12 13:00:47;;;;;;;;;;;;;;;15.92;73.00;98443.01;1709717;82;21330;-68
2022/09/12 13:03:26;;;;;;;;;;;;;;;15.91;72.75;98444.56;1714542;82;20174;-68
2022/09/12 13:05:56;;;;;;;;;;;;;;;15.88;72.51;98443.67;1693628;83;20151;-68
2022/09/12 13:08:31;;;;;;;;;;;;;;;15.81;72.33;98439.76;1716311;82;20429;-69
2022/09/12 13:11:00;;;;;;;;;;;;;;;15.76;72.35;98446.84;1690786;83;20116;-69
2022/09/12 13:13:37;;;;;;;;;;;;;;;15.68;72.43;98446.65;1716148;82;21246;-68
2022/09/12 13:16:03;;;;;;;;;;;;;;;15.64;72.53;98450.84;1689785;83;20197;-68